sensor_id;sensor_type;location;lat;lon;timestamp;P1;durP1;ratioP1;P2;durP2;ratioP2
59390;SDS011;53405;57.012;40.984;2023-08-07T00:00:11;8.75;;;5.70;;
59390;SDS011;53405;57.012;40.984;2023-08-07T00:02:39;8.57;;;6.20;;
59390;SDS011;53405;57.012;40.984;2023-08-07T00:05:07;10.95;;;5.90;;
59390;SDS011;53405;57.012;40.984;2023-08-07T00:07:35;7.07;;;5.30;;
59390;SDS011;53405;57.012;40.984;2023-08-07T00:10:03;7.45;;;5.63;;
59390;SDS011;53405;57.012;40.984;2023-08-07T00:12:31;6.95;;;5.57;;
59390;SDS011;53405;57.012;40.984;2023-08-07T00:14:59;8.77;;;5.95;;
59390;SDS011;53405;57.012;40.984;2023-08-07T00:17:30;7.97;;;5.63;;
59390;SDS011;53405;57.012;40.984;2023-08-07T00:19:58;9.02;;;5.85;;
59390;SDS011;53405;57.012;40.984;2023-08-07T00:22:26;8.90;;;5.60;;
59390;SDS011;53405;57.012;40.984;2023-08-07T00:24:54;9.68;;;5.80;;
59390;SDS011;53405;57.012;40.984;2023-08-07T00:27:22;8.48;;;5.50;;
59390;SDS011;53405;57.012;40.984;2023-08-07T00:29:50;11.10;;;5.80;;
59390;SDS011;53405;57.012;40.984;2023-08-07T00:32:18;9.38;;;5.75;;
59390;SDS011;53405;57.012;40.984;2023-08-07T00:34:47;7.32;;;5.55;;
59390;SDS011;53405;57.012;40.984;2023-08-07T00:37:14;10.27;;;5.40;;
59390;SDS011;53405;57.012;40.984;2023-08-07T00:39:42;9.90;;;5.70;;
59390;SDS011;53405;57.012;40.984;2023-08-07T00:42:10;9.95;;;6.55;;
59390;SDS011;53405;57.012;40.984;2023-08-07T00:44:38;11.05;;;5.75;;
59390;SDS011;53405;57.012;40.984;2023-08-07T00:47:06;8.95;;;6.38;;
59390;SDS011;53405;57.012;40.984;2023-08-07T00:49:34;9.30;;;6.40;;
59390;SDS011;53405;57.012;40.984;2023-08-07T00:52:03;7.32;;;5.65;;
59390;SDS011;53405;57.012;40.984;2023-08-07T00:54:31;14.50;;;6.40;;
59390;SDS011;53405;57.012;40.984;2023-08-07T00:59:35;10.25;;;6.22;;
59390;SDS011;53405;57.012;40.984;2023-08-07T01:02:04;8.63;;;5.73;;
59390;SDS011;53405;57.012;40.984;2023-08-07T01:04:32;12.52;;;6.25;;
59390;SDS011;53405;57.012;40.984;2023-08-07T01:06:59;9.20;;;5.70;;
59390;SDS011;53405;57.012;40.984;2023-08-07T01:09:27;9.85;;;6.13;;
59390;SDS011;53405;57.012;40.984;2023-08-07T01:11:57;9.02;;;5.55;;
59390;SDS011;53405;57.012;40.984;2023-08-07T01:17:16;10.30;;;6.20;;
59390;SDS011;53405;57.012;40.984;2023-08-07T01:19:48;9.48;;;5.82;;
59390;SDS011;53405;57.012;40.984;2023-08-07T01:22:19;7.35;;;5.22;;
59390;SDS011;53405;57.012;40.984;2023-08-07T01:24:47;9.13;;;5.88;;
59390;SDS011;53405;57.012;40.984;2023-08-07T01:35:29;10.55;;;6.07;;
59390;SDS011;53405;57.012;40.984;2023-08-07T01:38:06;9.80;;;5.80;;
59390;SDS011;53405;57.012;40.984;2023-08-07T01:40:34;12.38;;;6.15;;
59390;SDS011;53405;57.012;40.984;2023-08-07T01:43:05;10.13;;;5.82;;
59390;SDS011;53405;57.012;40.984;2023-08-07T01:45:34;10.02;;;6.45;;
59390;SDS011;53405;57.012;40.984;2023-08-07T01:48:02;8.52;;;6.07;;
59390;SDS011;53405;57.012;40.984;2023-08-07T01:50:30;9.70;;;6.05;;
59390;SDS011;53405;57.012;40.984;2023-08-07T01:52:58;7.32;;;5.63;;
59390;SDS011;53405;57.012;40.984;2023-08-07T01:55:25;8.15;;;5.90;;
59390;SDS011;53405;57.012;40.984;2023-08-07T01:57:53;8.57;;;5.53;;
59390;SDS011;53405;57.012;40.984;2023-08-07T02:00:21;9.25;;;6.25;;
59390;SDS011;53405;57.012;40.984;2023-08-07T02:02:49;9.48;;;5.65;;
59390;SDS011;53405;57.012;40.984;2023-08-07T02:05:17;11.77;;;5.95;;
59390;SDS011;53405;57.012;40.984;2023-08-07T02:07:45;8.10;;;5.22;;
59390;SDS011;53405;57.012;40.984;2023-08-07T02:10:13;8.95;;;6.18;;
59390;SDS011;53405;57.012;40.984;2023-08-07T02:12:41;13.02;;;6.35;;
59390;SDS011;53405;57.012;40.984;2023-08-07T02:15:09;9.07;;;5.80;;
59390;SDS011;53405;57.012;40.984;2023-08-07T02:17:37;9.32;;;6.25;;
59390;SDS011;53405;57.012;40.984;2023-08-07T02:20:08;9.40;;;5.90;;
59390;SDS011;53405;57.012;40.984;2023-08-07T02:22:36;10.93;;;5.72;;
59390;SDS011;53405;57.012;40.984;2023-08-07T02:25:04;10.52;;;5.80;;
59390;SDS011;53405;57.012;40.984;2023-08-07T02:27:33;9.43;;;6.50;;
59390;SDS011;53405;57.012;40.984;2023-08-07T02:30:00;7.90;;;5.47;;
59390;SDS011;53405;57.012;40.984;2023-08-07T02:32:31;7.82;;;5.53;;
59390;SDS011;53405;57.012;40.984;2023-08-07T02:34:58;8.10;;;5.97;;
59390;SDS011;53405;57.012;40.984;2023-08-07T02:37:26;11.07;;;6.32;;
59390;SDS011;53405;57.012;40.984;2023-08-07T02:39:54;9.00;;;6.40;;
59390;SDS011;53405;57.012;40.984;2023-08-07T02:42:22;8.77;;;6.53;;
59390;SDS011;53405;57.012;40.984;2023-08-07T02:44:49;8.70;;;6.97;;
59390;SDS011;53405;57.012;40.984;2023-08-07T02:47:18;8.57;;;6.45;;
59390;SDS011;53405;57.012;40.984;2023-08-07T02:49:46;10.15;;;5.93;;
59390;SDS011;53405;57.012;40.984;2023-08-07T02:52:13;13.80;;;6.63;;
59390;SDS011;53405;57.012;40.984;2023-08-07T02:54:41;9.57;;;6.85;;
59390;SDS011;53405;57.012;40.984;2023-08-07T02:57:09;10.98;;;6.40;;
59390;SDS011;53405;57.012;40.984;2023-08-07T02:59:36;12.00;;;6.53;;
59390;SDS011;53405;57.012;40.984;2023-08-07T03:02:04;9.95;;;6.00;;
59390;SDS011;53405;57.012;40.984;2023-08-07T03:04:32;10.23;;;6.32;;
59390;SDS011;53405;57.012;40.984;2023-08-07T03:07:00;11.95;;;6.15;;
59390;SDS011;53405;57.012;40.984;2023-08-07T03:09:28;9.02;;;6.25;;
59390;SDS011;53405;57.012;40.984;2023-08-07T03:11:56;7.32;;;5.90;;
59390;SDS011;53405;57.012;40.984;2023-08-07T03:14:23;13.10;;;5.85;;
59390;SDS011;53405;57.012;40.984;2023-08-07T03:16:51;10.40;;;6.70;;
59390;SDS011;53405;57.012;40.984;2023-08-07T03:19:19;61.33;;;8.90;;
59390;SDS011;53405;57.012;40.984;2023-08-07T03:21:49;19.90;;;7.00;;
59390;SDS011;53405;57.012;40.984;2023-08-07T03:24:17;11.88;;;6.22;;
59390;SDS011;53405;57.012;40.984;2023-08-07T03:26:45;11.13;;;6.65;;
59390;SDS011;53405;57.012;40.984;2023-08-07T03:29:14;15.93;;;6.97;;
59390;SDS011;53405;57.012;40.984;2023-08-07T03:31:43;11.65;;;7.50;;
59390;SDS011;53405;57.012;40.984;2023-08-07T03:34:12;14.93;;;6.35;;
59390;SDS011;53405;57.012;40.984;2023-08-07T03:36:40;12.48;;;8.60;;
59390;SDS011;53405;57.012;40.984;2023-08-07T03:39:08;13.52;;;7.30;;
59390;SDS011;53405;57.012;40.984;2023-08-07T03:41:38;15.73;;;7.45;;
59390;SDS011;53405;57.012;40.984;2023-08-07T03:44:07;15.30;;;6.63;;
59390;SDS011;53405;57.012;40.984;2023-08-07T03:46:35;13.82;;;7.47;;
59390;SDS011;53405;57.012;40.984;2023-08-07T03:49:03;15.77;;;7.75;;
59390;SDS011;53405;57.012;40.984;2023-08-07T03:51:31;9.73;;;6.72;;
59390;SDS011;53405;57.012;40.984;2023-08-07T03:53:59;11.82;;;6.85;;
59390;SDS011;53405;57.012;40.984;2023-08-07T03:56:27;11.63;;;7.20;;
59390;SDS011;53405;57.012;40.984;2023-08-07T03:58:55;11.45;;;6.40;;
59390;SDS011;53405;57.012;40.984;2023-08-07T04:01:24;13.75;;;6.80;;
59390;SDS011;53405;57.012;40.984;2023-08-07T04:03:52;11.45;;;6.57;;
59390;SDS011;53405;57.012;40.984;2023-08-07T04:06:20;11.88;;;7.15;;
59390;SDS011;53405;57.012;40.984;2023-08-07T04:08:48;10.15;;;6.40;;
59390;SDS011;53405;57.012;40.984;2023-08-07T04:11:16;13.27;;;6.63;;
59390;SDS011;53405;57.012;40.984;2023-08-07T04:13:44;15.10;;;6.97;;
59390;SDS011;53405;57.012;40.984;2023-08-07T04:16:12;14.45;;;7.15;;
59390;SDS011;53405;57.012;40.984;2023-08-07T04:18:39;10.80;;;6.63;;
59390;SDS011;53405;57.012;40.984;2023-08-07T04:21:07;13.50;;;6.22;;
59390;SDS011;53405;57.012;40.984;2023-08-07T04:23:35;16.67;;;6.77;;
59390;SDS011;53405;57.012;40.984;2023-08-07T04:26:03;12.77;;;5.82;;
59390;SDS011;53405;57.012;40.984;2023-08-07T04:28:31;13.60;;;6.22;;
59390;SDS011;53405;57.012;40.984;2023-08-07T04:30:58;12.77;;;6.15;;
59390;SDS011;53405;57.012;40.984;2023-08-07T04:33:26;12.27;;;5.47;;
59390;SDS011;53405;57.012;40.984;2023-08-07T04:35:54;10.80;;;5.55;;
59390;SDS011;53405;57.012;40.984;2023-08-07T04:38:22;12.30;;;5.18;;
59390;SDS011;53405;57.012;40.984;2023-08-07T04:40:49;10.75;;;5.40;;
59390;SDS011;53405;57.012;40.984;2023-08-07T04:43:18;9.75;;;5.15;;
59390;SDS011;53405;57.012;40.984;2023-08-07T04:45:49;8.90;;;5.63;;
59390;SDS011;53405;57.012;40.984;2023-08-07T04:48:17;9.73;;;5.33;;
59390;SDS011;53405;57.012;40.984;2023-08-07T04:50:45;11.45;;;5.13;;
59390;SDS011;53405;57.012;40.984;2023-08-07T04:53:12;10.50;;;5.50;;
59390;SDS011;53405;57.012;40.984;2023-08-07T04:55:40;12.90;;;6.63;;
59390;SDS011;53405;57.012;40.984;2023-08-07T04:58:08;11.90;;;5.35;;
59390;SDS011;53405;57.012;40.984;2023-08-07T05:00:35;8.98;;;5.20;;
59390;SDS011;53405;57.012;40.984;2023-08-07T05:03:04;12.45;;;4.93;;
59390;SDS011;53405;57.012;40.984;2023-08-07T05:05:31;8.80;;;5.18;;
59390;SDS011;53405;57.012;40.984;2023-08-07T05:07:59;7.20;;;4.60;;
59390;SDS011;53405;57.012;40.984;2023-08-07T05:10:30;10.63;;;5.32;;
59390;SDS011;53405;57.012;40.984;2023-08-07T05:12:57;10.63;;;4.70;;
59390;SDS011;53405;57.012;40.984;2023-08-07T05:15:25;10.07;;;5.07;;
59390;SDS011;53405;57.012;40.984;2023-08-07T05:17:56;11.00;;;5.05;;
59390;SDS011;53405;57.012;40.984;2023-08-07T05:20:24;12.40;;;4.90;;
59390;SDS011;53405;57.012;40.984;2023-08-07T05:22:52;12.88;;;5.57;;
59390;SDS011;53405;57.012;40.984;2023-08-07T05:25:19;9.82;;;4.70;;
59390;SDS011;53405;57.012;40.984;2023-08-07T05:27:47;11.18;;;4.47;;
59390;SDS011;53405;57.012;40.984;2023-08-07T05:30:15;9.63;;;4.60;;
59390;SDS011;53405;57.012;40.984;2023-08-07T05:32:42;11.43;;;4.97;;
59390;SDS011;53405;57.012;40.984;2023-08-07T05:35:10;9.63;;;4.57;;
59390;SDS011;53405;57.012;40.984;2023-08-07T05:37:38;11.63;;;4.78;;
59390;SDS011;53405;57.012;40.984;2023-08-07T05:40:06;12.25;;;6.15;;
59390;SDS011;53405;57.012;40.984;2023-08-07T05:42:34;9.82;;;5.00;;
59390;SDS011;53405;57.012;40.984;2023-08-07T05:45:02;12.77;;;4.63;;
59390;SDS011;53405;57.012;40.984;2023-08-07T05:47:35;10.55;;;3.95;;
59390;SDS011;53405;57.012;40.984;2023-08-07T05:50:03;12.77;;;4.47;;
59390;SDS011;53405;57.012;40.984;2023-08-07T05:52:34;11.13;;;3.85;;
59390;SDS011;53405;57.012;40.984;2023-08-07T05:55:02;11.05;;;4.07;;
59390;SDS011;53405;57.012;40.984;2023-08-07T05:57:34;9.10;;;4.25;;
59390;SDS011;53405;57.012;40.984;2023-08-07T06:00:03;11.20;;;4.50;;
59390;SDS011;53405;57.012;40.984;2023-08-07T06:02:40;10.55;;;4.00;;
59390;SDS011;53405;57.012;40.984;2023-08-07T06:05:07;9.50;;;3.42;;
59390;SDS011;53405;57.012;40.984;2023-08-07T06:10:04;9.73;;;3.53;;
59390;SDS011;53405;57.012;40.984;2023-08-07T06:12:32;12.80;;;5.70;;
59390;SDS011;53405;57.012;40.984;2023-08-07T06:15:00;9.85;;;4.50;;
59390;SDS011;53405;57.012;40.984;2023-08-07T06:17:31;8.13;;;3.92;;
59390;SDS011;53405;57.012;40.984;2023-08-07T06:19:58;12.85;;;5.10;;
59390;SDS011;53405;57.012;40.984;2023-08-07T06:22:27;12.82;;;5.40;;
59390;SDS011;53405;57.012;40.984;2023-08-07T06:24:57;11.48;;;5.63;;
59390;SDS011;53405;57.012;40.984;2023-08-07T06:27:25;10.30;;;4.70;;
59390;SDS011;53405;57.012;40.984;2023-08-07T06:29:53;14.13;;;4.40;;
59390;SDS011;53405;57.012;40.984;2023-08-07T06:32:21;15.85;;;4.75;;
59390;SDS011;53405;57.012;40.984;2023-08-07T06:34:48;9.23;;;4.38;;
59390;SDS011;53405;57.012;40.984;2023-08-07T06:37:16;8.75;;;3.92;;
59390;SDS011;53405;57.012;40.984;2023-08-07T06:39:44;8.38;;;3.97;;
59390;SDS011;53405;57.012;40.984;2023-08-07T06:42:12;7.18;;;3.45;;
59390;SDS011;53405;57.012;40.984;2023-08-07T06:44:43;15.35;;;3.60;;
59390;SDS011;53405;57.012;40.984;2023-08-07T06:47:11;10.70;;;3.70;;
59390;SDS011;53405;57.012;40.984;2023-08-07T06:49:38;4.82;;;3.28;;
59390;SDS011;53405;57.012;40.984;2023-08-07T06:52:06;7.75;;;3.58;;
59390;SDS011;53405;57.012;40.984;2023-08-07T06:54:34;8.05;;;3.85;;
59390;SDS011;53405;57.012;40.984;2023-08-07T06:57:02;6.97;;;3.60;;
59390;SDS011;53405;57.012;40.984;2023-08-07T06:59:30;7.93;;;4.00;;
59390;SDS011;53405;57.012;40.984;2023-08-07T07:01:58;5.10;;;3.15;;
59390;SDS011;53405;57.012;40.984;2023-08-07T07:04:26;9.98;;;3.78;;
59390;SDS011;53405;57.012;40.984;2023-08-07T07:06:53;7.80;;;3.38;;
59390;SDS011;53405;57.012;40.984;2023-08-07T07:09:21;13.07;;;3.00;;
59390;SDS011;53405;57.012;40.984;2023-08-07T07:11:48;7.05;;;3.20;;
59390;SDS011;53405;57.012;40.984;2023-08-07T07:14:16;16.02;;;3.67;;
59390;SDS011;53405;57.012;40.984;2023-08-07T07:16:44;6.22;;;3.30;;
59390;SDS011;53405;57.012;40.984;2023-08-07T07:19:11;6.57;;;3.17;;
59390;SDS011;53405;57.012;40.984;2023-08-07T07:21:39;12.05;;;3.70;;
59390;SDS011;53405;57.012;40.984;2023-08-07T07:24:06;7.82;;;3.50;;
59390;SDS011;53405;57.012;40.984;2023-08-07T07:26:34;7.57;;;3.17;;
59390;SDS011;53405;57.012;40.984;2023-08-07T07:29:02;8.10;;;3.22;;
59390;SDS011;53405;57.012;40.984;2023-08-07T07:31:29;12.57;;;3.80;;
59390;SDS011;53405;57.012;40.984;2023-08-07T07:33:57;9.93;;;3.25;;
59390;SDS011;53405;57.012;40.984;2023-08-07T07:36:25;5.78;;;3.08;;
59390;SDS011;53405;57.012;40.984;2023-08-07T07:38:53;10.27;;;4.25;;
59390;SDS011;53405;57.012;40.984;2023-08-07T07:41:21;7.28;;;3.05;;
59390;SDS011;53405;57.012;40.984;2023-08-07T07:43:49;17.10;;;6.63;;
59390;SDS011;53405;57.012;40.984;2023-08-07T07:46:17;7.78;;;3.47;;
59390;SDS011;53405;57.012;40.984;2023-08-07T07:48:45;10.35;;;3.90;;
59390;SDS011;53405;57.012;40.984;2023-08-07T07:51:12;10.70;;;3.10;;
59390;SDS011;53405;57.012;40.984;2023-08-07T07:53:40;5.33;;;2.50;;
59390;SDS011;53405;57.012;40.984;2023-08-07T07:56:07;6.55;;;2.80;;
59390;SDS011;53405;57.012;40.984;2023-08-07T07:58:35;5.55;;;2.75;;
59390;SDS011;53405;57.012;40.984;2023-08-07T08:01:03;7.05;;;3.13;;
59390;SDS011;53405;57.012;40.984;2023-08-07T08:03:30;10.23;;;3.00;;
59390;SDS011;53405;57.012;40.984;2023-08-07T08:05:58;5.47;;;2.60;;
59390;SDS011;53405;57.012;40.984;2023-08-07T08:08:26;10.40;;;3.95;;
59390;SDS011;53405;57.012;40.984;2023-08-07T08:10:54;7.70;;;3.17;;
59390;SDS011;53405;57.012;40.984;2023-08-07T08:13:22;14.63;;;7.23;;
59390;SDS011;53405;57.012;40.984;2023-08-07T08:15:52;7.43;;;3.00;;
59390;SDS011;53405;57.012;40.984;2023-08-07T08:18:19;12.45;;;7.78;;
59390;SDS011;53405;57.012;40.984;2023-08-07T08:20:47;19.95;;;12.60;;
59390;SDS011;53405;57.012;40.984;2023-08-07T08:23:15;7.95;;;3.10;;
59390;SDS011;53405;57.012;40.984;2023-08-07T08:25:42;9.95;;;3.10;;
59390;SDS011;53405;57.012;40.984;2023-08-07T08:28:10;16.20;;;8.57;;
59390;SDS011;53405;57.012;40.984;2023-08-07T08:30:38;9.65;;;4.20;;
59390;SDS011;53405;57.012;40.984;2023-08-07T08:33:06;14.50;;;7.27;;
59390;SDS011;53405;57.012;40.984;2023-08-07T08:35:34;11.13;;;3.83;;
59390;SDS011;53405;57.012;40.984;2023-08-07T08:38:02;10.63;;;2.92;;
59390;SDS011;53405;57.012;40.984;2023-08-07T08:40:30;9.57;;;3.90;;
59390;SDS011;53405;57.012;40.984;2023-08-07T08:43:00;7.20;;;2.35;;
59390;SDS011;53405;57.012;40.984;2023-08-07T08:45:28;6.05;;;2.60;;
59390;SDS011;53405;57.012;40.984;2023-08-07T08:48:01;5.07;;;3.08;;
59390;SDS011;53405;57.012;40.984;2023-08-07T08:50:31;6.10;;;2.95;;
59390;SDS011;53405;57.012;40.984;2023-08-07T08:53:01;4.93;;;2.60;;
59390;SDS011;53405;57.012;40.984;2023-08-07T08:55:30;11.52;;;2.70;;
59390;SDS011;53405;57.012;40.984;2023-08-07T08:57:58;6.13;;;2.33;;
59390;SDS011;53405;57.012;40.984;2023-08-07T09:00:27;7.47;;;2.80;;
59390;SDS011;53405;57.012;40.984;2023-08-07T09:02:57;9.55;;;2.95;;
59390;SDS011;53405;57.012;40.984;2023-08-07T09:07:54;7.80;;;2.63;;
59390;SDS011;53405;57.012;40.984;2023-08-07T09:10:23;6.80;;;2.25;;
59390;SDS011;53405;57.012;40.984;2023-08-07T09:13:01;6.80;;;2.72;;
59390;SDS011;53405;57.012;40.984;2023-08-07T09:15:34;8.75;;;2.58;;
59390;SDS011;53405;57.012;40.984;2023-08-07T09:18:06;5.75;;;2.10;;
59390;SDS011;53405;57.012;40.984;2023-08-07T09:20:36;9.85;;;2.42;;
59390;SDS011;53405;57.012;40.984;2023-08-07T09:23:08;5.63;;;2.58;;
59390;SDS011;53405;57.012;40.984;2023-08-07T09:25:35;8.40;;;2.50;;
59390;SDS011;53405;57.012;40.984;2023-08-07T09:28:04;7.25;;;2.40;;
59390;SDS011;53405;57.012;40.984;2023-08-07T09:30:34;5.43;;;2.10;;
59390;SDS011;53405;57.012;40.984;2023-08-07T09:33:03;5.50;;;2.10;;
59390;SDS011;53405;57.012;40.984;2023-08-07T09:35:31;4.72;;;2.38;;
59390;SDS011;53405;57.012;40.984;2023-08-07T09:38:00;7.72;;;2.10;;
59390;SDS011;53405;57.012;40.984;2023-08-07T09:40:29;9.63;;;2.70;;
59390;SDS011;53405;57.012;40.984;2023-08-07T09:43:00;6.57;;;2.70;;
59390;SDS011;53405;57.012;40.984;2023-08-07T09:45:28;6.28;;;2.40;;
59390;SDS011;53405;57.012;40.984;2023-08-07T09:48:04;6.60;;;2.17;;
59390;SDS011;53405;57.012;40.984;2023-08-07T09:50:35;5.35;;;2.00;;
59390;SDS011;53405;57.012;40.984;2023-08-07T09:53:03;3.30;;;1.67;;
59390;SDS011;53405;57.012;40.984;2023-08-07T09:55:30;7.90;;;2.10;;
59390;SDS011;53405;57.012;40.984;2023-08-07T10:00:28;4.72;;;2.00;;
59390;SDS011;53405;57.012;40.984;2023-08-07T10:03:02;6.80;;;2.47;;
59390;SDS011;53405;57.012;40.984;2023-08-07T10:05:32;6.05;;;1.75;;
59390;SDS011;53405;57.012;40.984;2023-08-07T10:08:00;6.38;;;2.25;;
59390;SDS011;53405;57.012;40.984;2023-08-07T10:10:28;15.52;;;2.97;;
59390;SDS011;53405;57.012;40.984;2023-08-07T10:12:57;6.35;;;1.85;;
59390;SDS011;53405;57.012;40.984;2023-08-07T10:15:31;6.57;;;2.00;;
59390;SDS011;53405;57.012;40.984;2023-08-07T10:18:00;4.47;;;1.90;;
59390;SDS011;53405;57.012;40.984;2023-08-07T10:20:28;5.30;;;1.95;;
59390;SDS011;53405;57.012;40.984;2023-08-07T10:23:06;6.10;;;2.03;;
59390;SDS011;53405;57.012;40.984;2023-08-07T10:25:36;5.80;;;2.10;;
59390;SDS011;53405;57.012;40.984;2023-08-07T10:28:08;7.38;;;2.05;;
59390;SDS011;53405;57.012;40.984;2023-08-07T10:30:38;6.82;;;2.10;;
59390;SDS011;53405;57.012;40.984;2023-08-07T10:33:07;5.47;;;2.30;;
59390;SDS011;53405;57.012;40.984;2023-08-07T10:35:36;6.00;;;1.92;;
59390;SDS011;53405;57.012;40.984;2023-08-07T10:38:05;4.68;;;2.13;;
59390;SDS011;53405;57.012;40.984;2023-08-07T10:43:28;4.70;;;2.10;;
59390;SDS011;53405;57.012;40.984;2023-08-07T10:46:03;11.60;;;2.60;;
59390;SDS011;53405;57.012;40.984;2023-08-07T10:48:43;6.45;;;2.40;;
59390;SDS011;53405;57.012;40.984;2023-08-07T10:51:14;9.55;;;2.20;;
59390;SDS011;53405;57.012;40.984;2023-08-07T10:53:47;5.70;;;2.20;;
59390;SDS011;53405;57.012;40.984;2023-08-07T10:56:16;6.40;;;2.28;;
59390;SDS011;53405;57.012;40.984;2023-08-07T10:58:56;6.00;;;1.80;;
59390;SDS011;53405;57.012;40.984;2023-08-07T11:03:58;7.72;;;2.20;;
59390;SDS011;53405;57.012;40.984;2023-08-07T11:06:32;5.65;;;2.20;;
59390;SDS011;53405;57.012;40.984;2023-08-07T11:09:01;8.52;;;2.22;;
59390;SDS011;53405;57.012;40.984;2023-08-07T11:11:39;5.53;;;2.15;;
59390;SDS011;53405;57.012;40.984;2023-08-07T11:14:13;6.75;;;2.42;;
59390;SDS011;53405;57.012;40.984;2023-08-07T11:16:42;4.75;;;2.42;;
59390;SDS011;53405;57.012;40.984;2023-08-07T11:19:16;6.43;;;2.20;;
59390;SDS011;53405;57.012;40.984;2023-08-07T11:21:45;6.80;;;2.50;;
59390;SDS011;53405;57.012;40.984;2023-08-07T11:24:13;6.05;;;1.90;;
59390;SDS011;53405;57.012;40.984;2023-08-07T11:26:46;5.25;;;2.20;;
59390;SDS011;53405;57.012;40.984;2023-08-07T11:29:17;6.30;;;2.30;;
59390;SDS011;53405;57.012;40.984;2023-08-07T11:31:45;7.47;;;2.15;;
59390;SDS011;53405;57.012;40.984;2023-08-07T11:34:13;10.05;;;2.67;;
59390;SDS011;53405;57.012;40.984;2023-08-07T11:36:41;4.10;;;2.10;;
59390;SDS011;53405;57.012;40.984;2023-08-07T11:39:11;7.30;;;2.50;;
59390;SDS011;53405;57.012;40.984;2023-08-07T11:41:39;5.00;;;2.20;;
59390;SDS011;53405;57.012;40.984;2023-08-07T11:44:07;10.57;;;2.65;;
59390;SDS011;53405;57.012;40.984;2023-08-07T11:46:35;6.65;;;1.98;;
59390;SDS011;53405;57.012;40.984;2023-08-07T11:49:03;6.30;;;2.33;;
59390;SDS011;53405;57.012;40.984;2023-08-07T11:53:59;12.77;;;3.03;;
59390;SDS011;53405;57.012;40.984;2023-08-07T11:56:29;8.75;;;2.33;;
59390;SDS011;53405;57.012;40.984;2023-08-07T11:58:57;14.68;;;2.65;;
59390;SDS011;53405;57.012;40.984;2023-08-07T12:01:25;4.97;;;2.33;;
59390;SDS011;53405;57.012;40.984;2023-08-07T12:03:55;6.95;;;2.30;;
59390;SDS011;53405;57.012;40.984;2023-08-07T12:06:24;7.50;;;2.63;;
59390;SDS011;53405;57.012;40.984;2023-08-07T12:08:56;10.07;;;2.83;;
59390;SDS011;53405;57.012;40.984;2023-08-07T12:11:25;7.47;;;2.40;;
59390;SDS011;53405;57.012;40.984;2023-08-07T12:13:52;4.15;;;2.03;;
59390;SDS011;53405;57.012;40.984;2023-08-07T12:16:21;9.07;;;2.58;;
59390;SDS011;53405;57.012;40.984;2023-08-07T12:18:49;5.82;;;2.50;;
59390;SDS011;53405;57.012;40.984;2023-08-07T12:21:22;18.48;;;4.00;;
59390;SDS011;53405;57.012;40.984;2023-08-07T12:23:56;7.95;;;2.67;;
59390;SDS011;53405;57.012;40.984;2023-08-07T12:26:24;7.65;;;2.30;;
59390;SDS011;53405;57.012;40.984;2023-08-07T12:28:52;8.00;;;3.50;;
59390;SDS011;53405;57.012;40.984;2023-08-07T12:31:21;9.48;;;3.38;;
59390;SDS011;53405;57.012;40.984;2023-08-07T12:33:49;12.40;;;2.72;;
59390;SDS011;53405;57.012;40.984;2023-08-07T12:36:17;13.52;;;2.67;;
59390;SDS011;53405;57.012;40.984;2023-08-07T12:38:46;15.65;;;3.08;;
59390;SDS011;53405;57.012;40.984;2023-08-07T12:41:14;9.60;;;2.50;;
59390;SDS011;53405;57.012;40.984;2023-08-07T12:43:45;7.30;;;2.55;;
59390;SDS011;53405;57.012;40.984;2023-08-07T12:46:13;14.55;;;2.30;;
59390;SDS011;53405;57.012;40.984;2023-08-07T12:48:44;6.80;;;2.40;;
59390;SDS011;53405;57.012;40.984;2023-08-07T12:51:12;16.63;;;2.92;;
59390;SDS011;53405;57.012;40.984;2023-08-07T12:53:40;13.48;;;2.50;;
59390;SDS011;53405;57.012;40.984;2023-08-07T12:56:07;5.00;;;1.93;;
59390;SDS011;53405;57.012;40.984;2023-08-07T12:58:35;5.47;;;2.40;;
59390;SDS011;53405;57.012;40.984;2023-08-07T13:01:03;5.78;;;2.55;;
59390;SDS011;53405;57.012;40.984;2023-08-07T13:03:33;7.18;;;2.30;;
59390;SDS011;53405;57.012;40.984;2023-08-07T13:06:01;7.07;;;2.70;;
59390;SDS011;53405;57.012;40.984;2023-08-07T13:08:32;7.40;;;2.20;;
59390;SDS011;53405;57.012;40.984;2023-08-07T13:11:01;8.45;;;2.50;;
59390;SDS011;53405;57.012;40.984;2023-08-07T13:13:29;6.75;;;2.65;;
59390;SDS011;53405;57.012;40.984;2023-08-07T13:15:58;9.48;;;2.63;;
59390;SDS011;53405;57.012;40.984;2023-08-07T13:18:26;8.45;;;2.50;;
59390;SDS011;53405;57.012;40.984;2023-08-07T13:20:53;5.82;;;2.30;;
59390;SDS011;53405;57.012;40.984;2023-08-07T13:23:21;5.47;;;2.30;;
59390;SDS011;53405;57.012;40.984;2023-08-07T13:25:49;5.85;;;2.10;;
59390;SDS011;53405;57.012;40.984;2023-08-07T13:28:18;8.35;;;2.60;;
59390;SDS011;53405;57.012;40.984;2023-08-07T13:30:46;6.07;;;3.00;;
59390;SDS011;53405;57.012;40.984;2023-08-07T13:33:13;11.83;;;2.97;;
59390;SDS011;53405;57.012;40.984;2023-08-07T13:35:41;6.53;;;2.63;;
59390;SDS011;53405;57.012;40.984;2023-08-07T13:38:08;8.50;;;2.60;;
59390;SDS011;53405;57.012;40.984;2023-08-07T13:40:37;11.52;;;5.85;;
59390;SDS011;53405;57.012;40.984;2023-08-07T13:43:05;9.00;;;3.30;;
59390;SDS011;53405;57.012;40.984;2023-08-07T13:45:35;7.03;;;2.90;;
59390;SDS011;53405;57.012;40.984;2023-08-07T13:48:04;6.00;;;2.30;;
59390;SDS011;53405;57.012;40.984;2023-08-07T13:50:36;6.55;;;2.70;;
59390;SDS011;53405;57.012;40.984;2023-08-07T13:53:11;5.85;;;2.25;;
59390;SDS011;53405;57.012;40.984;2023-08-07T13:55:41;4.68;;;2.20;;
59390;SDS011;53405;57.012;40.984;2023-08-07T13:58:09;4.50;;;2.30;;
59390;SDS011;53405;57.012;40.984;2023-08-07T14:00:37;9.38;;;2.70;;
59390;SDS011;53405;57.012;40.984;2023-08-07T14:03:09;9.82;;;2.83;;
59390;SDS011;53405;57.012;40.984;2023-08-07T14:08:08;5.07;;;2.70;;
59390;SDS011;53405;57.012;40.984;2023-08-07T14:10:38;5.50;;;2.17;;
59390;SDS011;53405;57.012;40.984;2023-08-07T14:13:08;6.55;;;2.80;;
59390;SDS011;53405;57.012;40.984;2023-08-07T14:15:37;4.22;;;2.40;;
59390;SDS011;53405;57.012;40.984;2023-08-07T14:20:36;6.30;;;2.38;;
59390;SDS011;53405;57.012;40.984;2023-08-07T14:23:11;8.55;;;2.53;;
59390;SDS011;53405;57.012;40.984;2023-08-07T14:28:18;7.43;;;2.95;;
59390;SDS011;53405;57.012;40.984;2023-08-07T14:30:47;6.30;;;2.70;;
59390;SDS011;53405;57.012;40.984;2023-08-07T14:33:15;5.47;;;2.40;;
59390;SDS011;53405;57.012;40.984;2023-08-07T14:35:44;7.32;;;2.70;;
59390;SDS011;53405;57.012;40.984;2023-08-07T14:38:11;6.10;;;2.70;;
59390;SDS011;53405;57.012;40.984;2023-08-07T14:40:39;8.63;;;3.80;;
59390;SDS011;53405;57.012;40.984;2023-08-07T14:43:08;6.60;;;3.55;;
59390;SDS011;53405;57.012;40.984;2023-08-07T14:45:37;8.70;;;3.35;;
59390;SDS011;53405;57.012;40.984;2023-08-07T14:48:05;8.05;;;3.17;;
59390;SDS011;53405;57.012;40.984;2023-08-07T14:50:34;6.13;;;2.75;;
59390;SDS011;53405;57.012;40.984;2023-08-07T14:53:01;15.55;;;3.55;;
59390;SDS011;53405;57.012;40.984;2023-08-07T14:55:29;8.87;;;3.77;;
59390;SDS011;53405;57.012;40.984;2023-08-07T14:57:57;7.00;;;3.20;;
59390;SDS011;53405;57.012;40.984;2023-08-07T15:00:25;9.18;;;4.00;;
59390;SDS011;53405;57.012;40.984;2023-08-07T15:02:53;6.53;;;3.13;;
59390;SDS011;53405;57.012;40.984;2023-08-07T15:05:20;7.37;;;3.07;;
59390;SDS011;53405;57.012;40.984;2023-08-07T15:07:48;9.73;;;3.35;;
59390;SDS011;53405;57.012;40.984;2023-08-07T15:10:16;7.07;;;3.20;;
59390;SDS011;53405;57.012;40.984;2023-08-07T15:15:12;7.75;;;3.72;;
59390;SDS011;53405;57.012;40.984;2023-08-07T15:17:40;8.87;;;3.50;;